Time;durP1;ratioP1;P1;durP2;ratioP2;P2;SDS_P1;SDS_P2;PMS_P1;PMS_P2;Temp;Humidity;BMP_temperature;BMP_pressure;BME280_temperature;BME280_humidity;BME280_pressure;Samples;Min_cycle;Max_cycle;Signal;HPM_P1;HPM_P2
2022/09/25 00:00:41;;;;;;;6.60;3.47;;;;;;;;;;4965527;28;20026;-74
2022/09/25 00:03:07;;;;;;;8.50;3.30;;;;;;;;;;4965490;28;20178;-74
2022/09/25 00:05:37;;;;;;;10.05;3.40;;;;;;;;;;4966320;28;20370;-74
2022/09/25 00:08:03;;;;;;;7.00;3.30;;;;;;;;;;4977332;28;20535;-74
2022/09/25 00:10:29;;;;;;;6.82;3.22;;;;;;;;;;4964043;28;20046;-74
2022/09/25 00:12:55;;;;;;;8.88;3.40;;;;;;;;;;4976447;28;20086;-74
2022/09/25 00:15:20;;;;;;;7.05;3.28;;;;;;;;;;4981019;28;20019;-75
2022/09/25 00:17:46;;;;;;;9.18;3.60;;;;;;;;;;4983702;28;20054;-75
2022/09/25 00:20:13;;;;;;;8.65;3.65;;;;;;;;;;4983962;28;20034;-74
2022/09/25 00:22:38;;;;;;;9.05;3.80;;;;;;;;;;4980240;28;20015;-75
2022/09/25 00:25:04;;;;;;;9.40;4.20;;;;;;;;;;4982021;28;20098;-75
2022/09/25 00:27:29;;;;;;;7.43;3.63;;;;;;;;;;4982814;28;20022;-75
2022/09/25 00:29:55;;;;;;;10.88;3.88;;;;;;;;;;4983740;28;20026;-75
2022/09/25 00:32:20;;;;;;;7.97;3.97;;;;;;;;;;4983691;28;20026;-75
2022/09/25 00:34:46;;;;;;;12.02;4.10;;;;;;;;;;4983729;28;20021;-75
2022/09/25 00:37:11;;;;;;;8.52;3.88;;;;;;;;;;4983706;28;20386;-75
2022/09/25 00:39:37;;;;;;;7.57;3.78;;;;;;;;;;4983653;28;20049;-75
2022/09/25 00:42:03;;;;;;;9.77;3.97;;;;;;;;;;4984208;28;20019;-75
2022/09/25 00:44:51;;;;;;;10.93;4.50;;;;;;;;;;4984074;28;20031;-75
2022/09/25 00:47:22;;;;;;;8.30;4.20;;;;;;;;;;4983241;28;20054;-75
2022/09/25 00:49:49;;;;;;;8.75;4.40;;;;;;;;;;4983278;28;20023;-75
2022/09/25 00:52:15;;;;;;;7.45;4.10;;;;;;;;;;4984020;28;20406;-75
2022/09/25 00:54:51;;;;;;;6.18;3.90;;;;;;;;;;4983284;28;20097;-75
2022/09/25 00:57:25;;;;;;;7.13;4.15;;;;;;;;;;4983987;28;20065;-75
2022/09/25 00:59:56;;;;;;;7.10;4.03;;;;;;;;;;4983533;28;20035;-75
2022/09/25 01:02:34;;;;;;;9.38;3.88;;;;;;;;;;4983841;28;20023;-74
2022/09/25 01:05:05;;;;;;;9.57;3.90;;;;;;;;;;4983350;28;20030;-75
2022/09/25 01:07:37;;;;;;;7.90;3.42;;;;;;;;;;4983426;28;20357;-75
2022/09/25 01:10:05;;;;;;;8.95;3.55;;;;;;;;;;4983059;28;20038;-75
2022/09/25 01:12:31;;;;;;;6.43;3.30;;;;;;;;;;4983639;28;20022;-75
2022/09/25 01:14:56;;;;;;;7.63;3.10;;;;;;;;;;4983472;28;20069;-75
2022/09/25 01:17:40;;;;;;;7.43;3.20;;;;;;;;;;4983500;28;20033;-75
2022/09/25 01:20:32;;;;;;;8.95;3.05;;;;;;;;;;4982686;28;20027;-75
2022/09/25 01:23:21;;;;;;;9.43;3.22;;;;;;;;;;4983179;28;20023;-75
2022/09/25 01:26:17;;;;;;;9.57;2.83;;;;;;;;;;4983013;28;20038;-75
2022/09/25 01:29:02;;;;;;;10.60;3.42;;;;;;;;;;4980513;28;20022;-75
2022/09/25 01:31:39;;;;;;;7.63;2.60;;;;;;;;;;4983080;28;20061;-75
2022/09/25 01:34:14;;;;;;;10.80;2.97;;;;;;;;;;4977572;28;20374;-75
2022/09/25 01:37:04;;;;;;;10.90;2.78;;;;;;;;;;4982430;28;20039;-75
2022/09/25 01:39:40;;;;;;;6.57;2.78;;;;;;;;;;4982960;28;20113;-75
2022/09/25 01:42:19;;;;;;;7.97;2.55;;;;;;;;;;4978640;28;20035;-75
2022/09/25 01:44:56;;;;;;;10.07;3.00;;;;;;;;;;4977642;28;20085;-75
2022/09/25 01:47:29;;;;;;;6.15;2.78;;;;;;;;;;4979122;28;20022;-75
2022/09/25 01:49:59;;;;;;;5.90;2.67;;;;;;;;;;4981120;28;20065;-75
2022/09/25 01:52:31;;;;;;;7.82;3.05;;;;;;;;;;4982880;28;20023;-75
2022/09/25 01:55:05;;;;;;;7.63;3.30;;;;;;;;;;4982503;28;20058;-74
2022/09/25 01:57:40;;;;;;;8.40;3.33;;;;;;;;;;4982776;28;20037;-75
2022/09/25 02:00:16;;;;;;;11.50;3.30;;;;;;;;;;4982199;28;20327;-75
2022/09/25 02:02:49;;;;;;;9.82;3.28;;;;;;;;;;4980591;28;20098;-75
2022/09/25 02:05:19;;;;;;;8.43;3.50;;;;;;;;;;4982238;28;20023;-75
2022/09/25 02:07:51;;;;;;;11.63;3.60;;;;;;;;;;4982330;28;20029;-75
2022/09/25 02:10:25;;;;;;;9.85;3.40;;;;;;;;;;4982416;28;20022;-75
2022/09/25 02:12:57;;;;;;;6.68;3.15;;;;;;;;;;4982421;28;20054;-74
2022/09/25 02:15:33;;;;;;;8.90;3.20;;;;;;;;;;4979384;28;20132;-74
2022/09/25 02:20:57;;;;;;;12.18;3.55;;;;;;;;;;4982251;28;20073;-74
2022/09/25 02:23:26;;;;;;;10.25;3.70;;;;;;;;;;4982173;28;20094;-75
2022/09/25 02:26:19;;;;;;;7.88;3.08;;;;;;;;;;4981412;28;20050;-75
2022/09/25 02:28:44;;;;;;;9.32;3.00;;;;;;;;;;4981027;28;20035;-74
2022/09/25 02:31:12;;;;;;;9.40;3.40;;;;;;;;;;4981659;28;20191;-74
2022/09/25 02:33:37;;;;;;;10.38;3.33;;;;;;;;;;4981782;28;20019;-75
2022/09/25 02:36:05;;;;;;;9.05;3.33;;;;;;;;;;4981767;28;20113;-75
2022/09/25 02:38:32;;;;;;;7.70;3.20;;;;;;;;;;4981734;28;20054;-75
2022/09/25 02:41:22;;;;;;;11.02;3.47;;;;;;;;;;4981806;28;20291;-74
2022/09/25 02:44:04;;;;;;;7.90;3.22;;;;;;;;;;4976446;28;20082;-75
2022/09/25 02:46:43;;;;;;;8.40;3.38;;;;;;;;;;4978550;28;20035;-74
2022/09/25 02:49:28;;;;;;;7.85;3.38;;;;;;;;;;4981716;28;20046;-74
2022/09/25 02:52:05;;;;;;;8.35;3.10;;;;;;;;;;4981687;28;20018;-75
2022/09/25 02:54:47;;;;;;;7.47;3.55;;;;;;;;;;4976616;28;20062;-74
2022/09/25 02:57:23;;;;;;;7.10;3.30;;;;;;;;;;4978770;28;20046;-74
2022/09/25 02:59:57;;;;;;;7.63;3.53;;;;;;;;;;4981616;28;20019;-74
2022/09/25 03:02:24;;;;;;;8.23;3.35;;;;;;;;;;4981930;28;20386;-74
2022/09/25 03:04:51;;;;;;;8.57;3.25;;;;;;;;;;4981122;28;20054;-75
2022/09/25 03:07:18;;;;;;;10.10;3.80;;;;;;;;;;4981731;28;20143;-75
2022/09/25 03:09:46;;;;;;;8.30;3.42;;;;;;;;;;4981366;28;20232;-75
2022/09/25 03:12:13;;;;;;;6.43;3.15;;;;;;;;;;4981774;28;20023;-75
2022/09/25 03:14:39;;;;;;;7.45;3.00;;;;;;;;;;4981492;28;20407;-75
2022/09/25 03:17:06;;;;;;;7.57;3.42;;;;;;;;;;4980422;28;20057;-75
2022/09/25 03:19:33;;;;;;;10.55;3.40;;;;;;;;;;4981566;28;20326;-74
2022/09/25 03:21:59;;;;;;;7.97;3.17;;;;;;;;;;4980066;28;20031;-75
2022/09/25 03:24:25;;;;;;;6.68;3.00;;;;;;;;;;4981047;28;20029;-75
2022/09/25 03:26:50;;;;;;;9.95;3.40;;;;;;;;;;4981566;28;20023;-75
2022/09/25 03:29:16;;;;;;;7.05;3.03;;;;;;;;;;4981556;28;20046;-75
2022/09/25 03:31:42;;;;;;;7.63;3.63;;;;;;;;;;4981541;28;20038;-74
2022/09/25 03:34:08;;;;;;;10.45;3.35;;;;;;;;;;4981223;28;20199;-75
2022/09/25 03:36:34;;;;;;;5.95;3.10;;;;;;;;;;4981329;28;20047;-75
2022/09/25 03:39:00;;;;;;;8.55;3.35;;;;;;;;;;4981317;28;20201;-75
2022/09/25 03:41:28;;;;;;;7.85;3.30;;;;;;;;;;4980738;28;20039;-75
2022/09/25 03:43:55;;;;;;;8.52;3.80;;;;;;;;;;4974947;28;20027;-75
2022/09/25 03:46:23;;;;;;;10.00;3.70;;;;;;;;;;4979986;28;20030;-75
2022/09/25 03:48:49;;;;;;;8.95;3.47;;;;;;;;;;4981100;28;20045;-75
2022/09/25 03:51:14;;;;;;;6.57;3.35;;;;;;;;;;4981839;28;20334;-74
2022/09/25 03:53:40;;;;;;;11.75;3.97;;;;;;;;;;4984959;28;20337;-75
2022/09/25 03:56:09;;;;;;;7.25;3.83;;;;;;;;;;4984710;28;20099;-75
2022/09/25 03:58:35;;;;;;;8.30;3.72;;;;;;;;;;4984736;28;20050;-75
2022/09/25 04:01:00;;;;;;;8.02;3.90;;;;;;;;;;4984745;28;20255;-74
2022/09/25 04:03:30;;;;;;;8.45;3.70;;;;;;;;;;4983874;28;20078;-74
2022/09/25 04:05:57;;;;;;;9.13;3.72;;;;;;;;;;4984498;28;20035;-74
2022/09/25 04:08:25;;;;;;;7.80;3.60;;;;;;;;;;4984593;28;20113;-74
2022/09/25 04:10:51;;;;;;;7.07;3.80;;;;;;;;;;4984925;28;20085;-75
2022/09/25 04:13:16;;;;;;;10.45;4.18;;;;;;;;;;4984390;28;20034;-75
2022/09/25 04:15:42;;;;;;;9.30;4.07;;;;;;;;;;4984350;28;20218;-75
2022/09/25 04:18:08;;;;;;;9.93;3.70;;;;;;;;;;4984618;28;20095;-75
2022/09/25 04:20:34;;;;;;;10.00;4.00;;;;;;;;;;4984285;28;20022;-75
2022/09/25 04:22:59;;;;;;;10.93;3.90;;;;;;;;;;4984539;28;20027;-74
2022/09/25 04:25:24;;;;;;;10.60;4.10;;;;;;;;;;4983440;28;20101;-75
2022/09/25 04:27:54;;;;;;;7.43;3.95;;;;;;;;;;4984557;28;20314;-75
2022/09/25 04:30:21;;;;;;;10.15;4.03;;;;;;;;;;4977294;28;20042;-75
2022/09/25 04:35:30;;;;;;;7.60;3.70;;;;;;;;;;4979843;28;20092;-75
2022/09/25 04:37:56;;;;;;;8.13;3.45;;;;;;;;;;4984120;28;20088;-75
2022/09/25 04:40:21;;;;;;;8.93;3.55;;;;;;;;;;4984083;28;20023;-75
2022/09/25 04:42:46;;;;;;;6.45;3.22;;;;;;;;;;4983951;28;20027;-74
2022/09/25 04:45:12;;;;;;;7.65;3.40;;;;;;;;;;4984082;28;20049;-74
2022/09/25 04:47:37;;;;;;;7.07;3.10;;;;;;;;;;4983836;28;20060;-75
2022/09/25 04:50:03;;;;;;;8.05;3.15;;;;;;;;;;4983656;28;20029;-75
2022/09/25 04:52:28;;;;;;;8.45;3.08;;;;;;;;;;4983882;28;20319;-75
2022/09/25 04:54:54;;;;;;;7.75;3.28;;;;;;;;;;4983766;28;20319;-75
2022/09/25 04:57:20;;;;;;;7.72;3.30;;;;;;;;;;4983494;28;20094;-75
2022/09/25 04:59:47;;;;;;;6.93;2.80;;;;;;;;;;4983834;28;20030;-75
2022/09/25 05:02:13;;;;;;;7.53;3.40;;;;;;;;;;4983078;28;20065;-75
2022/09/25 05:04:39;;;;;;;7.55;2.70;;;;;;;;;;4982211;28;20030;-75
2022/09/25 05:07:04;;;;;;;7.13;2.85;;;;;;;;;;4983504;28;20027;-74
2022/09/25 05:09:30;;;;;;;9.90;3.30;;;;;;;;;;4983366;28;20204;-75
2022/09/25 05:11:56;;;;;;;8.57;3.30;;;;;;;;;;4983516;28;20476;-74
2022/09/25 05:14:22;;;;;;;8.70;3.20;;;;;;;;;;4977246;28;20030;-75
2022/09/25 05:16:47;;;;;;;9.38;3.38;;;;;;;;;;4983200;28;20066;-75
2022/09/25 05:19:13;;;;;;;6.57;3.38;;;;;;;;;;4983578;28;20110;-75
2022/09/25 05:21:39;;;;;;;8.18;3.60;;;;;;;;;;4983162;28;20023;-75
2022/09/25 05:24:07;;;;;;;6.47;3.83;;;;;;;;;;4983124;28;20019;-75
2022/09/25 05:26:33;;;;;;;10.38;3.95;;;;;;;;;;4983089;28;20042;-75
2022/09/25 05:28:59;;;;;;;9.30;4.03;;;;;;;;;;4983203;28;20214;-74
2022/09/25 05:31:24;;;;;;;8.57;3.97;;;;;;;;;;4981371;28;20039;-75
2022/09/25 05:33:50;;;;;;;11.98;4.25;;;;;;;;;;4982687;28;20046;-75
2022/09/25 05:36:17;;;;;;;8.25;4.20;;;;;;;;;;4983159;28;20081;-74
2022/09/25 05:38:42;;;;;;;9.02;4.80;;;;;;;;;;4982977;28;20114;-75
2022/09/25 05:41:09;;;;;;;9.93;4.93;;;;;;;;;;4982088;28;20613;-74
2022/09/25 05:43:39;;;;;;;12.85;5.10;;;;;;;;;;4982412;28;20038;-75
2022/09/25 05:46:04;;;;;;;12.02;5.22;;;;;;;;;;4978783;28;20018;-74
2022/09/25 05:48:30;;;;;;;11.27;5.40;;;;;;;;;;4982590;28;20302;-75
2022/09/25 05:50:56;;;;;;;13.02;5.50;;;;;;;;;;4981686;28;20022;-75
2022/09/25 05:53:23;;;;;;;14.98;6.10;;;;;;;;;;4979140;28;20030;-75
2022/09/25 05:55:52;;;;;;;11.30;5.90;;;;;;;;;;4982086;28;20031;-75
2022/09/25 05:58:17;;;;;;;16.50;6.05;;;;;;;;;;4980375;28;20146;-75
2022/09/25 06:00:44;;;;;;;10.50;6.13;;;;;;;;;;4981719;28;20019;-74
2022/09/25 06:03:09;;;;;;;17.17;6.47;;;;;;;;;;4977417;28;20019;-75
2022/09/25 06:05:35;;;;;;;10.00;6.10;;;;;;;;;;4981887;28;20045;-75
2022/09/25 06:08:01;;;;;;;10.82;6.13;;;;;;;;;;4982350;28;20034;-74
2022/09/25 06:10:26;;;;;;;13.27;6.80;;;;;;;;;;4982487;28;20026;-74
2022/09/25 06:12:57;;;;;;;13.13;6.35;;;;;;;;;;4982345;28;20278;-75
2022/09/25 06:15:24;;;;;;;15.20;6.20;;;;;;;;;;4979563;28;20037;-75
2022/09/25 06:17:50;;;;;;;10.65;6.38;;;;;;;;;;4973323;28;20105;-76
2022/09/25 06:20:15;;;;;;;11.57;6.40;;;;;;;;;;4981797;28;20203;-75
2022/09/25 06:22:40;;;;;;;14.73;6.07;;;;;;;;;;4982162;28;20191;-76
2022/09/25 06:25:06;;;;;;;12.48;6.45;;;;;;;;;;4975986;28;20307;-75
2022/09/25 06:27:32;;;;;;;14.25;6.80;;;;;;;;;;4981815;28;20255;-75
2022/09/25 06:29:57;;;;;;;12.18;6.28;;;;;;;;;;4982150;28;20019;-76
2022/09/25 06:32:23;;;;;;;14.23;6.32;;;;;;;;;;4981840;28;20073;-75
2022/09/25 06:34:49;;;;;;;15.95;6.03;;;;;;;;;;4981752;28;20090;-74
2022/09/25 06:37:14;;;;;;;14.85;6.68;;;;;;;;;;4981431;28;20251;-75
2022/09/25 06:39:40;;;;;;;13.40;6.65;;;;;;;;;;4981970;28;20027;-75
2022/09/25 06:42:05;;;;;;;17.08;6.78;;;;;;;;;;4979023;28;20122;-75
2022/09/25 06:44:30;;;;;;;16.55;6.80;;;;;;;;;;4981593;28;20022;-75
2022/09/25 06:46:56;;;;;;;11.57;5.75;;;;;;;;;;4981892;28;20018;-75
2022/09/25 06:49:21;;;;;;;11.88;5.97;;;;;;;;;;4981141;28;20038;-74
2022/09/25 06:51:47;;;;;;;11.73;6.35;;;;;;;;;;4981689;28;20037;-75
2022/09/25 06:54:12;;;;;;;11.07;6.18;;;;;;;;;;4978620;28;20083;-74
2022/09/25 06:56:38;;;;;;;12.13;5.60;;;;;;;;;;4981603;28;20093;-75
2022/09/25 06:59:03;;;;;;;12.82;6.03;;;;;;;;;;4981650;28;20023;-75
2022/09/25 07:01:29;;;;;;;10.98;5.90;;;;;;;;;;4981580;28;20207;-75
2022/09/25 07:03:54;;;;;;;12.73;5.47;;;;;;;;;;4981294;28;20377;-75
2022/09/25 07:06:22;;;;;;;12.85;5.55;;;;;;;;;;4981244;28;20030;-75
2022/09/25 07:08:48;;;;;;;10.70;5.25;;;;;;;;;;4979065;28;20050;-75
2022/09/25 07:11:17;;;;;;;11.13;5.32;;;;;;;;;;4977421;28;20045;-75
2022/09/25 07:13:42;;;;;;;10.77;5.50;;;;;;;;;;4976472;28;20210;-74
2022/09/25 07:16:14;;;;;;;13.80;5.60;;;;;;;;;;4980821;28;20030;-75
2022/09/25 07:18:39;;;;;;;11.23;5.65;;;;;;;;;;4979467;28;20040;-75
2022/09/25 07:21:08;;;;;;;12.13;5.43;;;;;;;;;;4980668;28;20035;-75
2022/09/25 07:23:36;;;;;;;9.93;5.10;;;;;;;;;;4986243;28;20027;-75
2022/09/25 07:26:13;;;;;;;9.30;4.80;;;;;;;;;;4982708;28;20031;-75
2022/09/25 07:28:40;;;;;;;12.90;5.82;;;;;;;;;;4984781;28;20091;-75
2022/09/25 07:31:18;;;;;;;15.18;5.85;;;;;;;;;;4984933;28;20023;-75
2022/09/25 07:33:43;;;;;;;11.32;5.25;;;;;;;;;;4985156;28;20068;-75
2022/09/25 07:36:09;;;;;;;11.90;5.35;;;;;;;;;;4984591;28;20061;-74
2022/09/25 07:38:35;;;;;;;15.02;6.32;;;;;;;;;;4984332;28;20042;-75
2022/09/25 07:41:05;;;;;;;9.63;4.80;;;;;;;;;;4984450;28;20337;-75
2022/09/25 07:43:31;;;;;;;10.80;4.80;;;;;;;;;;4985030;28;20069;-75
2022/09/25 07:45:57;;;;;;;12.43;4.97;;;;;;;;;;4984383;28;20037;-78
2022/09/25 07:48:23;;;;;;;12.25;5.32;;;;;;;;;;4984823;28;20223;-75
2022/09/25 07:50:49;;;;;;;12.32;4.60;;;;;;;;;;4983672;28;20035;-75
2022/09/25 07:53:17;;;;;;;10.65;4.88;;;;;;;;;;4984438;28;20042;-75
2022/09/25 07:55:42;;;;;;;11.07;4.82;;;;;;;;;;4984125;28;20019;-75
2022/09/25 07:58:08;;;;;;;12.90;4.53;;;;;;;;;;4983651;28;20030;-75
2022/09/25 08:00:33;;;;;;;13.70;4.57;;;;;;;;;;4984335;28;20026;-75
2022/09/25 08:02:58;;;;;;;9.48;4.18;;;;;;;;;;4984368;28;20069;-75
2022/09/25 08:05:25;;;;;;;10.43;4.07;;;;;;;;;;4983647;28;20464;-75
2022/09/25 08:07:52;;;;;;;9.88;4.00;;;;;;;;;;4983943;28;20046;-75
2022/09/25 08:10:17;;;;;;;8.00;4.15;;;;;;;;;;4981448;28;20027;-74
2022/09/25 08:12:43;;;;;;;12.15;3.92;;;;;;;;;;4983458;28;20031;-75
2022/09/25 08:15:09;;;;;;;9.40;4.15;;;;;;;;;;4982454;28;20231;-74
2022/09/25 08:17:34;;;;;;;9.45;3.70;;;;;;;;;;4977598;28;20031;-75
2022/09/25 08:20:00;;;;;;;7.82;3.40;;;;;;;;;;4983178;28;20137;-75
2022/09/25 08:22:26;;;;;;;10.60;3.47;;;;;;;;;;4983587;28;20023;-75
2022/09/25 08:24:52;;;;;;;9.23;3.42;;;;;;;;;;4983846;28;20093;-75
2022/09/25 08:27:17;;;;;;;12.50;3.30;;;;;;;;;;4984113;28;20041;-75
2022/09/25 08:29:42;;;;;;;9.20;3.10;;;;;;;;;;4978660;28;20027;-75
2022/09/25 08:32:08;;;;;;;10.05;3.10;;;;;;;;;;4981908;28;20046;-75
2022/09/25 08:34:34;;;;;;;8.77;3.30;;;;;;;;;;4982712;28;20034;-75
2022/09/25 08:36:59;;;;;;;9.15;2.97;;;;;;;;;;4981652;28;20107;-75
2022/09/25 08:39:24;;;;;;;6.97;2.58;;;;;;;;;;4983111;28;20318;-75
2022/09/25 08:41:54;;;;;;;10.73;3.30;;;;;;;;;;4983587;28;20034;-75
2022/09/25 08:44:38;;;;;;;7.60;2.50;;;;;;;;;;4982135;28;20073;-75
2022/09/25 08:50:12;;;;;;;8.98;2.38;;;;;;;;;;4983058;28;20166;-75
2022/09/25 08:52:45;;;;;;;5.53;1.95;;;;;;;;;;4982975;28;20034;-76
2022/09/25 08:55:24;;;;;;;6.47;1.70;;;;;;;;;;4982812;28;20026;-74
2022/09/25 08:57:54;;;;;;;9.02;1.80;;;;;;;;;;4980303;28;20089;-75
2022/09/25 09:00:21;;;;;;;6.65;1.95;;;;;;;;;;4982543;28;20018;-74
2022/09/25 09:02:56;;;;;;;5.72;1.90;;;;;;;;;;4982592;28;20027;-75
2022/09/25 09:05:35;;;;;;;6.68;1.80;;;;;;;;;;4982295;28;20033;-74
2022/09/25 09:08:18;;;;;;;5.03;1.60;;;;;;;;;;4979142;28;20057;-74
2022/09/25 09:10:56;;;;;;;7.75;1.75;;;;;;;;;;4982160;28;20023;-75
2022/09/25 09:13:40;;;;;;;8.43;1.80;;;;;;;;;;4982609;28;20026;-75
2022/09/25 09:16:18;;;;;;;6.50;1.70;;;;;;;;;;4982416;28;20031;-74
2022/09/25 09:18:43;;;;;;;5.03;1.40;;;;;;;;;;4982543;28;20363;-75
2022/09/25 09:21:32;;;;;;;5.75;1.40;;;;;;;;;;4982404;28;20023;-75
2022/09/25 09:24:03;;;;;;;8.00;1.40;;;;;;;;;;4982815;28;20125;-75
2022/09/25 09:27:02;;;;;;;6.75;1.50;;;;;;;;;;4982776;28;20050;-74
2022/09/25 09:29:36;;;;;;;8.45;1.80;;;;;;;;;;4981333;28;20027;-76
2022/09/25 09:32:28;;;;;;;4.53;1.70;;;;;;;;;;4981283;28;20026;-76
2022/09/25 09:35:06;;;;;;;7.00;1.55;;;;;;;;;;4977734;28;20323;-75
2022/09/25 09:37:40;;;;;;;8.60;1.65;;;;;;;;;;4982612;28;20039;-75
2022/09/25 09:40:21;;;;;;;5.38;1.17;;;;;;;;;;4977471;28;20205;-75
2022/09/25 09:43:02;;;;;;;6.90;1.40;;;;;;;;;;4982510;28;20243;-76
2022/09/25 09:45:43;;;;;;;3.75;1.27;;;;;;;;;;4979550;28;20026;-75
2022/09/25 09:48:17;;;;;;;5.93;1.50;;;;;;;;;;4981519;28;20279;-75
2022/09/25 09:50:50;;;;;;;3.35;1.10;;;;;;;;;;4979125;28;20200;-76
2022/09/25 09:53:39;;;;;;;3.78;1.00;;;;;;;;;;4981730;28;20031;-75
2022/09/25 09:56:16;;;;;;;5.30;1.40;;;;;;;;;;4980959;28;20053;-76
2022/09/25 09:58:56;;;;;;;5.07;1.40;;;;;;;;;;4980810;28;20034;-75
2022/09/25 10:01:25;;;;;;;5.00;1.25;;;;;;;;;;4979891;28;20023;-74
2022/09/25 10:04:05;;;;;;;5.25;1.27;;;;;;;;;;4979368;28;20114;-74
2022/09/25 10:06:35;;;;;;;4.03;1.23;;;;;;;;;;4981235;28;20034;-74
2022/09/25 10:09:01;;;;;;;5.63;1.30;;;;;;;;;;4981586;28;20073;-75
2022/09/25 10:11:30;;;;;;;4.65;1.10;;;;;;;;;;4981026;28;20034;-74
2022/09/25 10:13:58;;;;;;;5.30;1.23;;;;;;;;;;4981092;28;20026;-76
2022/09/25 10:16:25;;;;;;;4.60;1.05;;;;;;;;;;4975116;28;20023;-75
2022/09/25 10:19:03;;;;;;;5.82;1.52;;;;;;;;;;4971293;28;20023;-75
2022/09/25 10:21:38;;;;;;;5.65;1.20;;;;;;;;;;4980119;28;20054;-75
2022/09/25 10:24:03;;;;;;;;;;;;;;;;;;4994014;28;20023;-75
2022/09/25 10:26:36;;;;;;;2.53;1.17;;;;;;;;;;4981655;28;19946;-76
2022/09/25 10:29:03;;;;;;;3.22;1.02;;;;;;;;;;4976006;28;20038;-75
2022/09/25 10:31:35;;;;;;;3.35;1.10;;;;;;;;;;4981606;28;20029;-75
2022/09/25 10:34:12;;;;;;;5.57;1.20;;;;;;;;;;4981584;28;20369;-75
2022/09/25 10:36:41;;;;;;;6.20;1.30;;;;;;;;;;4980361;28;20484;-75
2022/09/25 10:39:26;;;;;;;2.47;1.10;;;;;;;;;;4981088;28;20029;-76
2022/09/25 10:41:53;;;;;;;4.35;1.05;;;;;;;;;;4980980;28;20325;-75
2022/09/25 10:44:34;;;;;;;3.70;1.17;;;;;;;;;;4981116;28;20030;-74
2022/09/25 10:50:11;;;;;;;4.00;1.25;;;;;;;;;;4979782;28;20314;-76
2022/09/25 10:52:48;;;;;;;3.88;1.27;;;;;;;;;;4980925;28;20022;-76
2022/09/25 10:55:35;;;;;;;4.60;1.10;;;;;;;;;;4976300;28;20026;-76
2022/09/25 10:58:09;;;;;;;6.65;1.25;;;;;;;;;;4963926;28;20039;-75
2022/09/25 11:00:52;;;;;;;5.53;1.13;;;;;;;;;;4980971;28;20327;-75
2022/09/25 11:03:24;;;;;;;3.97;1.08;;;;;;;;;;4981533;28;20037;-75
2022/09/25 11:05:55;;;;;;;3.35;1.00;;;;;;;;;;4978294;28;20026;-75
2022/09/25 11:08:24;;;;;;;4.22;1.10;;;;;;;;;;4990811;28;20047;-76
2022/09/25 11:10:56;;;;;;;3.22;1.10;;;;;;;;;;4981156;28;20034;-76
2022/09/25 11:13:27;;;;;;;4.38;1.10;;;;;;;;;;4980746;28;20023;-75
2022/09/25 11:15:59;;;;;;;4.53;1.20;;;;;;;;;;4981005;28;20099;-75
2022/09/25 11:19:13;;;;;;;3.33;1.30;;;;;;;;;;4980161;28;20037;-75
2022/09/25 11:21:48;;;;;;;3.55;1.00;;;;;;;;;;4935713;29;20651;-75
2022/09/25 11:24:39;;;;;;;9.45;3.90;;;;;;;;;;4975465;28;20074;-75
2022/09/25 11:27:14;;;;;;;3.63;1.10;;;;;;;;;;4980933;28;20315;-77
2022/09/25 11:29:53;;;;;;;4.28;1.50;;;;;;;;;;4981273;28;20420;-75
2022/09/25 11:32:46;;;;;;;3.58;1.25;;;;;;;;;;4980080;28;20050;-75
2022/09/25 11:35:28;;;;;;;6.65;1.27;;;;;;;;;;4993661;28;20038;-75
2022/09/25 11:41:11;;;;;;;7.05;1.30;;;;;;;;;;4979399;28;20046;-75
2022/09/25 11:41:21;;;;;;;6.60;1.10;;;;;;;;;;4979456;28;20050;-75
2022/09/25 11:44:00;;;;;;;5.47;1.10;;;;;;;;;;4978285;28;20145;-75
2022/09/25 11:46:38;;;;;;;3.47;1.02;;;;;;;;;;4973637;28;20031;-75
2022/09/25 11:49:14;;;;;;;3.65;1.23;;;;;;;;;;4976745;28;20023;-75
2022/09/25 11:51:59;;;;;;;3.38;1.05;;;;;;;;;;4976776;28;20015;-75
2022/09/25 11:54:47;;;;;;;4.10;1.27;;;;;;;;;;4976741;28;20026;-75
2022/09/25 11:57:18;;;;;;;4.47;1.33;;;;;;;;;;4979301;28;20077;-75
2022/09/25 11:59:52;;;;;;;3.38;1.10;;;;;;;;;;4980314;28;20030;-75
2022/09/25 12:02:39;;;;;;;4.27;0.90;;;;;;;;;;4980680;28;20098;-78
2022/09/25 12:05:23;;;;;;;2.72;1.10;;;;;;;;;;4979562;28;20038;-76
2022/09/25 12:08:25;;;;;;;3.83;1.20;;;;;;;;;;4980570;28;20030;-75
2022/09/25 12:11:10;;;;;;;4.35;1.13;;;;;;;;;;4979216;28;20057;-74
2022/09/25 12:14:10;;;;;;;3.50;1.00;;;;;;;;;;4981877;28;20207;-74
2022/09/25 12:17:05;;;;;;;4.93;1.30;;;;;;;;;;4980041;28;20062;-75
2022/09/25 12:20:13;;;;;;;3.75;1.23;;;;;;;;;;4983568;28;20090;-74
2022/09/25 12:23:03;;;;;;;3.88;1.25;;;;;;;;;;4966342;28;20212;-74
2022/09/25 12:25:34;;;;;;;6.38;1.30;;;;;;;;;;4981732;28;20033;-74
2022/09/25 12:28:41;;;;;;;5.00;1.25;;;;;;;;;;4981661;28;20015;-74
2022/09/25 12:31:21;;;;;;;2.95;1.00;;;;;;;;;;4936975;29;20087;-75
2022/09/25 12:34:13;;;;;;;3.55;1.05;;;;;;;;;;4942783;29;20024;-75
2022/09/25 12:36:45;;;;;;;4.35;1.13;;;;;;;;;;4972646;28;20109;-74
2022/09/25 12:39:39;;;;;;;2.92;1.10;;;;;;;;;;4983727;28;20026;-75
2022/09/25 12:42:40;;;;;;;4.25;1.00;;;;;;;;;;4980977;28;20023;-75
2022/09/25 12:45:31;;;;;;;3.20;1.35;;;;;;;;;;4981092;28;20093;-76
2022/09/25 12:48:18;;;;;;;2.75;1.00;;;;;;;;;;4976523;28;20047;-75
2022/09/25 12:51:16;;;;;;;7.88;1.38;;;;;;;;;;4983247;28;20098;-74
2022/09/25 12:53:49;;;;;;;4.93;1.10;;;;;;;;;;4980048;28;20051;-74
2022/09/25 12:56:26;;;;;;;3.63;1.20;;;;;;;;;;4983871;28;20439;-74
2022/09/25 12:59:16;;;;;;;4.07;1.20;;;;;;;;;;4980313;28;20306;-74
2022/09/25 13:01:53;;;;;;;3.10;1.10;;;;;;;;;;4980403;28;20031;-75
2022/09/25 13:04:52;;;;;;;3.38;1.00;;;;;;;;;;4980591;28;20738;-75
2022/09/25 13:07:23;;;;;;;2.42;1.00;;;;;;;;;;4978325;28;20034;-78
2022/09/25 13:09:49;;;;;;;4.32;1.00;;;;;;;;;;4983015;28;20114;-76
2022/09/25 13:12:35;;;;;;;2.13;0.75;;;;;;;;;;4983588;28;20026;-75
2022/09/25 13:15:34;;;;;;;3.35;0.98;;;;;;;;;;4983218;28;20034;-75
2022/09/25 13:18:00;;;;;;;3.05;1.10;;;;;;;;;;4950327;28;20338;-78
2022/09/25 13:20:25;;;;;;;2.20;1.00;;;;;;;;;;4981489;28;20144;-79
2022/09/25 13:22:55;;;;;;;3.13;1.10;;;;;;;;;;4982844;28;20206;-77
2022/09/25 13:25:21;;;;;;;4.60;1.17;;;;;;;;;;4983016;28;20090;-76
2022/09/25 13:27:47;;;;;;;6.00;1.23;;;;;;;;;;4983627;28;20076;-79
2022/09/25 13:30:19;;;;;;;3.78;0.98;;;;;;;;;;4983131;28;20023;-78
2022/09/25 13:32:50;;;;;;;4.15;1.10;;;;;;;;;;4977895;28;20025;-78
2022/09/25 13:35:18;;;;;;;1.77;0.80;;;;;;;;;;4981473;28;20031;-76
2022/09/25 13:37:44;;;;;;;1.95;0.88;;;;;;;;;;4983068;28;20043;-77
2022/09/25 13:40:41;;;;;;;2.35;0.90;;;;;;;;;;4981300;28;20097;-79
2022/09/25 13:43:22;;;;;;;4.25;1.48;;;;;;;;;;4981610;28;20026;-77
2022/09/25 13:46:08;;;;;;;3.35;1.10;;;;;;;;;;4978512;28;20027;-75
2022/09/25 13:48:37;;;;;;;5.40;1.00;;;;;;;;;;4978984;28;20038;-79
2022/09/25 13:51:21;;;;;;;3.45;1.25;;;;;;;;;;4981334;28;20318;-78
2022/09/25 13:53:59;;;;;;;2.45;0.98;;;;;;;;;;4982747;28;20026;-76
2022/09/25 13:56:26;;;;;;;2.50;0.98;;;;;;;;;;4982493;28;20023;-80
2022/09/25 13:59:12;;;;;;;2.63;1.10;;;;;;;;;;4982281;28;20035;-79
2022/09/25 14:01:52;;;;;;;3.97;1.10;;;;;;;;;;4982244;28;20031;-79
2022/09/25 14:04:34;;;;;;;3.70;1.08;;;;;;;;;;4981022;28;20033;-77
2022/09/25 14:07:19;;;;;;;2.13;0.93;;;;;;;;;;4980972;28;20094;-76
2022/09/25 14:09:52;;;;;;;4.95;1.00;;;;;;;;;;4978615;28;20365;-76
2022/09/25 14:12:24;;;;;;;2.67;1.10;;;;;;;;;;4982091;28;20223;-76
2022/09/25 14:14:57;;;;;;;4.05;1.08;;;;;;;;;;4982249;28;20082;-77
2022/09/25 14:17:26;;;;;;;2.83;1.00;;;;;;;;;;4982116;28;20030;-78
2022/09/25 14:19:53;;;;;;;3.15;1.27;;;;;;;;;;4981930;28;20019;-79
2022/09/25 14:22:31;;;;;;;2.80;1.08;;;;;;;;;;4981977;28;20034;-78
2022/09/25 14:24:57;;;;;;;5.93;1.38;;;;;;;;;;4982079;28;20027;-80
2022/09/25 14:27:26;;;;;;;4.85;1.00;;;;;;;;;;4981388;28;20049;-78
2022/09/25 14:30:02;;;;;;;1.80;1.00;;;;;;;;;;4980314;28;20106;-78
2022/09/25 14:33:02;;;;;;;2.40;0.82;;;;;;;;;;4980374;28;20036;-75
2022/09/25 14:35:56;;;;;;;2.97;1.00;;;;;;;;;;4980469;28;20022;-75
2022/09/25 14:38:37;;;;;;;2.08;0.90;;;;;;;;;;4976637;28;20049;-77
2022/09/25 14:41:10;;;;;;;3.13;1.38;;;;;;;;;;4981925;28;20026;-78
2022/09/25 14:43:40;;;;;;;6.57;1.10;;;;;;;;;;4980392;28;20034;-76
2022/09/25 14:46:19;;;;;;;3.35;1.00;;;;;;;;;;4981681;28;20353;-77
2022/09/25 14:48:53;;;;;;;2.83;0.93;;;;;;;;;;4978680;28;20037;-77
2022/09/25 14:51:43;;;;;;;2.33;1.10;;;;;;;;;;4981154;28;20026;-75
2022/09/25 14:54:14;;;;;;;3.97;1.10;;;;;;;;;;4976092;28;20133;-78
2022/09/25 14:56:47;;;;;;;3.40;0.93;;;;;;;;;;4980177;28;20469;-77
2022/09/25 14:59:22;;;;;;;2.10;0.85;;;;;;;;;;4975602;28;20026;-78
2022/09/25 15:01:50;;;;;;;2.80;0.95;;;;;;;;;;4981158;28;20019;-76
2022/09/25 15:04:32;;;;;;;2.50;1.02;;;;;;;;;;4981351;28;20053;-76
2022/09/25 15:07:02;;;;;;;4.03;1.20;;;;;;;;;;4981130;28;20090;-77
2022/09/25 15:09:37;;;;;;;4.85;1.30;;;;;;;;;;4980376;28;20035;-77
2022/09/25 15:12:29;;;;;;;4.50;1.20;;;;;;;;;;4978907;28;20029;-77
2022/09/25 15:15:02;;;;;;;3.53;1.25;;;;;;;;;;4979226;28;20030;-76
2022/09/25 15:17:30;;;;;;;5.00;1.30;;;;;;;;;;4980113;28;20097;-75
2022/09/25 15:19:57;;;;;;;5.78;1.80;;;;;;;;;;4980493;28;20031;-75
2022/09/25 15:22:27;;;;;;;3.45;1.20;;;;;;;;;;4980323;28;20174;-77
2022/09/25 15:24:57;;;;;;;2.13;1.00;;;;;;;;;;4981189;28;20101;-78